Cedar Lake, Michigan
Current Conditions -  °F | °C
As of 11:31 AM on Saturday 20 Dec 2014 (Local Time) from KAMN Reporting Station
Scattered Clouds Scattered Clouds  
Wind Chill: 27°   Ceiling: Unl
Heat Index: 27°   Visibility: 7mi
Dew Point: 25°   Wind: 0mph
Humidity: 92%   Direction: NA
Pressure: 30.29"   Gusts: NA
Location:  43.41°N, 84.97°W
Report Text: KAMN 201631Z AUTO 00000KT 7SM SCT100 M03/M04 A3029 RMK AO2 T10301041
Loading
Personal Weather Stations






























Interactive Weather Map New forecast layout! Learn more

10-Day Weather Forecast

Advertisements
Track Severe Weather on mobile